createdAt,value
2022-08-12T00:00:06.572Z,39.19
2022-08-12T00:02:51.773Z,38.76
2022-08-12T00:05:39.957Z,39.02
2022-08-12T00:08:46.427Z,38.95
2022-08-12T00:11:33.484Z,39.19
2022-08-12T00:14:18.596Z,39.33
2022-08-12T00:17:04.023Z,39.36
2022-08-12T00:19:49.202Z,39.45
2022-08-12T00:22:34.848Z,39.30
2022-08-12T00:26:01.278Z,39.32
2022-08-12T00:28:27.731Z,39.42
2022-08-12T00:31:13.160Z,39.14
2022-08-12T00:33:58.299Z,39.59
2022-08-12T00:36:50.207Z,39.19
2022-08-12T00:39:36.515Z,38.97
2022-08-12T00:42:12.849Z,39.74
2022-08-12T00:44:42.467Z,38.97
2022-08-12T00:47:24.108Z,39.44
2022-08-12T00:49:54.007Z,39.62
2022-08-12T00:52:21.764Z,39.73
2022-08-12T00:54:58.695Z,39.45
2022-08-12T00:57:29.306Z,40.03
2022-08-12T01:00:09.488Z,39.70
2022-08-12T01:02:42.384Z,40.42
2022-08-12T01:05:31.594Z,40.15
2022-08-12T01:08:17.281Z,40.63
2022-08-12T01:11:04.506Z,39.99
2022-08-12T01:13:34.241Z,40.51
2022-08-12T01:16:03.837Z,40.56
2022-08-12T01:18:33.946Z,41.07
2022-08-12T01:21:11.936Z,40.96
2022-08-12T01:24:29.942Z,40.90
2022-08-12T01:26:51.208Z,41.02
2022-08-12T01:29:26.237Z,40.91
2022-08-12T01:31:57.659Z,41.55
2022-08-12T01:34:36.314Z,41.58
2022-08-12T01:37:07.213Z,41.60
2022-08-12T01:40:33.340Z,41.33
2022-08-12T01:42:41.919Z,41.78
2022-08-12T01:45:10.068Z,41.62
2022-08-12T01:48:05.067Z,41.58
2022-08-12T01:50:54.552Z,42.01
2022-08-12T01:53:50.302Z,41.61
2022-08-12T01:56:22.078Z,42.31
2022-08-12T01:59:13.135Z,42.00
2022-08-12T02:01:41.666Z,42.38
2022-08-12T02:04:59.061Z,42.62
2022-08-12T02:08:02.183Z,42.02
2022-08-12T02:11:13.822Z,42.34
2022-08-12T02:13:55.344Z,42.11
2022-08-12T02:16:46.452Z,42.04
2022-08-12T02:19:34.594Z,42.63
2022-08-12T02:22:31.318Z,42.32
2022-08-12T02:25:12.230Z,42.40
2022-08-12T02:27:41.784Z,42.35
2022-08-12T02:30:11.350Z,42.64
2022-08-12T02:32:44.059Z,42.90
2022-08-12T02:35:23.025Z,42.75
2022-08-12T02:37:52.843Z,42.87
2022-08-12T02:40:21.154Z,43.04
2022-08-12T02:42:54.314Z,42.97
2022-08-12T02:45:45.301Z,42.95
2022-08-12T02:48:19.997Z,43.54
2022-08-12T02:50:51.726Z,43.73
2022-08-12T02:53:19.062Z,44.25
2022-08-12T02:55:47.093Z,44.28
2022-08-12T02:58:14.884Z,44.36
2022-08-12T03:00:44.060Z,44.34
2022-08-12T03:03:13.323Z,44.32
2022-08-12T03:06:00.092Z,44.74
2022-08-12T03:08:33.129Z,44.92
2022-08-12T03:11:06.091Z,44.92
2022-08-12T03:13:45.594Z,45.24
2022-08-12T03:16:12.674Z,44.72
2022-08-12T03:18:45.781Z,44.83
2022-08-12T03:21:17.563Z,45.09
2022-08-12T03:24:06.385Z,45.41
2022-08-12T03:26:36.058Z,45.81
2022-08-12T03:29:06.924Z,45.40
2022-08-12T03:31:34.108Z,46.11
2022-08-12T03:34:04.118Z,45.76
2022-08-12T03:36:35.407Z,46.33
2022-08-12T03:39:36.281Z,46.16
2022-08-12T03:42:22.582Z,45.74
2022-08-12T03:45:15.594Z,46.43
2022-08-12T03:48:19.070Z,46.48
2022-08-12T03:51:05.893Z,46.17
2022-08-12T03:53:51.272Z,46.04
2022-08-12T03:56:37.039Z,46.08
2022-08-12T03:59:24.925Z,45.64
2022-08-12T04:01:57.570Z,45.99
2022-08-12T04:04:33.971Z,46.40
2022-08-12T04:07:03.307Z,45.85
2022-08-12T04:09:31.059Z,45.96
2022-08-12T04:12:16.011Z,46.16
2022-08-12T04:14:43.127Z,46.46
2022-08-12T04:17:10.042Z,46.08
2022-08-12T04:19:37.370Z,46.13
2022-08-12T04:22:04.321Z,46.81
2022-08-12T04:24:36.011Z,47.04
2022-08-12T04:27:08.996Z,46.70
2022-08-12T04:30:29.149Z,46.47
2022-08-12T04:32:25.639Z,46.24
2022-08-12T04:34:53.670Z,45.50
2022-08-12T04:37:20.324Z,45.55
2022-08-12T04:39:48.099Z,45.28
2022-08-12T04:42:14.860Z,45.11
2022-08-12T04:44:42.469Z,45.22
2022-08-12T04:47:15.167Z,45.25
2022-08-12T04:49:44.422Z,45.09
2022-08-12T04:52:11.295Z,45.11
2022-08-12T04:54:38.625Z,45.32
2022-08-12T04:57:06.078Z,44.82
2022-08-12T04:59:47.701Z,44.65
2022-08-12T05:02:21.347Z,44.88
2022-08-12T05:04:51.792Z,44.58
2022-08-12T05:07:19.680Z,44.36
2022-08-12T05:10:01.796Z,44.22
2022-08-12T05:12:43.116Z,44.57
2022-08-12T05:15:26.704Z,44.13
2022-08-12T05:17:56.093Z,44.04
2022-08-12T05:20:23.771Z,43.42
2022-08-12T05:22:53.099Z,43.56
2022-08-12T05:25:24.907Z,43.33
2022-08-12T05:27:55.524Z,43.16
2022-08-12T05:30:27.206Z,42.55
2022-08-12T05:32:55.738Z,42.51
2022-08-12T05:35:27.445Z,42.24
2022-08-12T05:38:13.967Z,41.41
2022-08-12T05:40:41.978Z,41.33
2022-08-12T05:43:08.942Z,40.15
2022-08-12T05:45:35.631Z,39.40
2022-08-12T05:48:02.810Z,38.44
2022-08-12T05:50:29.496Z,38.83
2022-08-12T05:52:56.202Z,38.24
2022-08-12T05:55:25.823Z,38.11
2022-08-12T05:57:55.716Z,38.08
2022-08-12T06:00:25.863Z,38.37
2022-08-12T06:03:02.063Z,37.72
2022-08-12T06:05:52.695Z,37.21
2022-08-12T06:08:22.406Z,37.26
2022-08-12T06:10:51.837Z,37.29
2022-08-12T06:13:27.873Z,37.12
2022-08-12T06:15:55.932Z,36.84
2022-08-12T06:18:25.447Z,36.64
2022-08-12T06:21:00.185Z,37.14
2022-08-12T06:23:29.820Z,36.59
2022-08-12T06:25:58.533Z,36.22
2022-08-12T06:28:26.115Z,35.90
2022-08-12T06:31:15.327Z,35.99
2022-08-12T06:34:00.113Z,36.48
2022-08-12T06:36:33.580Z,36.07
2022-08-12T06:39:01.116Z,35.00
2022-08-12T06:42:10.813Z,34.95
2022-08-12T06:44:33.178Z,35.57
2022-08-12T06:47:00.329Z,35.16
2022-08-12T06:49:28.463Z,34.16
2022-08-12T06:51:56.667Z,33.51
2022-08-12T06:54:30.642Z,33.82
2022-08-12T06:58:07.050Z,33.72
2022-08-12T06:59:44.945Z,32.51
2022-08-12T07:02:12.705Z,32.84
2022-08-12T07:04:39.652Z,32.51
2022-08-12T07:07:08.611Z,32.86
2022-08-12T07:10:06.558Z,31.96
2022-08-12T07:12:22.500Z,32.13
2022-08-12T07:14:52.710Z,33.78
2022-08-12T07:17:19.298Z,33.65
2022-08-12T07:19:48.626Z,33.32
2022-08-12T07:22:16.515Z,34.84
2022-08-12T07:24:43.456Z,34.43
2022-08-12T07:27:10.112Z,34.66
2022-08-12T07:30:03.669Z,33.96
2022-08-12T07:32:24.701Z,34.61
2022-08-12T07:34:56.253Z,34.75
2022-08-12T07:37:23.547Z,35.09
2022-08-12T07:39:59.332Z,33.64
2022-08-12T07:42:28.791Z,34.05
2022-08-12T07:44:56.495Z,33.31
2022-08-12T07:47:28.448Z,32.93
2022-08-12T07:50:04.506Z,32.21
2022-08-12T07:52:42.089Z,32.57
2022-08-12T07:55:10.341Z,32.50
2022-08-12T07:57:49.931Z,32.98
2022-08-12T08:00:17.141Z,31.53
2022-08-12T08:02:44.035Z,32.52
2022-08-12T08:05:10.683Z,32.52
2022-08-12T08:07:37.363Z,32.18
2022-08-12T08:10:10.812Z,32.82
2022-08-12T08:12:58.815Z,32.13
2022-08-12T08:16:01.124Z,32.45
2022-08-12T08:18:26.352Z,31.36
2022-08-12T08:20:55.070Z,31.25
2022-08-12T08:23:21.799Z,31.10
2022-08-12T08:25:50.176Z,31.95
2022-08-12T08:28:21.276Z,31.39
2022-08-12T08:30:50.585Z,31.21
2022-08-12T08:33:24.433Z,31.31
2022-08-12T08:36:07.585Z,30.85
2022-08-12T08:38:53.223Z,30.96
2022-08-12T08:42:15.604Z,30.80
2022-08-12T08:44:29.774Z,30.65
2022-08-12T08:46:56.492Z,31.08
2022-08-12T08:49:23.427Z,30.91
2022-08-12T08:51:50.250Z,30.90
2022-08-12T08:54:17.204Z,30.97
2022-08-12T08:56:44.390Z,30.81
2022-08-12T08:59:12.565Z,30.47
2022-08-12T09:05:12.799Z,31.18
2022-08-12T09:07:43.742Z,30.27
2022-08-12T09:10:09.344Z,30.60
2022-08-12T09:13:08.943Z,30.59
2022-08-12T09:15:56.058Z,29.36
2022-08-12T09:18:41.112Z,29.28
2022-08-12T09:21:07.963Z,29.58
2022-08-12T09:23:58.906Z,29.71
2022-08-12T09:26:28.308Z,29.51
2022-08-12T09:29:00.443Z,30.02
2022-08-12T09:32:02.873Z,29.65
2022-08-12T09:34:27.873Z,29.86
2022-08-12T09:37:02.509Z,29.95
2022-08-12T09:40:00.868Z,28.75
2022-08-12T09:42:59.671Z,29.38
2022-08-12T09:46:11.497Z,29.13
2022-08-12T09:48:22.373Z,29.35
2022-08-12T09:50:52.119Z,29.40
2022-08-12T09:53:36.217Z,29.23
2022-08-12T09:56:57.331Z,28.63
2022-08-12T09:59:00.639Z,28.68
2022-08-12T10:01:35.380Z,28.49
2022-08-12T10:04:19.206Z,28.02
2022-08-12T10:06:55.631Z,28.35
2022-08-12T10:09:28.891Z,28.31
2022-08-12T10:12:32.714Z,27.84
2022-08-12T10:16:03.172Z,27.46
2022-08-12T10:18:07.468Z,28.21
2022-08-12T10:20:34.495Z,27.66
2022-08-12T10:23:01.746Z,28.23
2022-08-12T10:26:36.644Z,28.31
2022-08-12T10:29:02.873Z,28.30
2022-08-12T10:31:46.883Z,27.23
2022-08-12T10:34:24.041Z,27.33
2022-08-12T10:37:22.657Z,27.59
2022-08-12T10:40:00.655Z,27.57
2022-08-12T10:42:57.635Z,26.89
2022-08-12T10:45:27.382Z,27.86
2022-08-12T10:48:07.641Z,26.75
2022-08-12T10:51:00.928Z,26.20
2022-08-12T10:53:45.086Z,25.35
2022-08-12T10:56:18.273Z,25.80
2022-08-12T10:58:47.087Z,25.71
2022-08-12T11:01:50.085Z,25.81
2022-08-12T11:04:37.157Z,25.59
2022-08-12T11:07:05.240Z,24.82
2022-08-12T11:09:51.295Z,23.49
2022-08-12T11:12:56.584Z,24.43
2022-08-12T11:15:19.061Z,23.86
2022-08-12T11:17:54.116Z,25.12
2022-08-12T11:20:24.373Z,25.31
2022-08-12T11:23:03.507Z,25.20
2022-08-12T11:25:42.419Z,24.92
2022-08-12T11:28:20.586Z,24.74
2022-08-12T11:31:01.761Z,22.71
2022-08-12T11:34:06.422Z,23.20
2022-08-12T11:36:16.339Z,23.67
2022-08-12T11:38:43.622Z,23.54
2022-08-12T11:41:30.837Z,23.87
2022-08-12T11:43:59.026Z,24.50
2022-08-12T11:46:26.022Z,23.54
2022-08-12T11:48:52.894Z,23.94
2022-08-12T11:51:20.861Z,24.29
2022-08-12T11:53:57.414Z,21.51
2022-08-12T11:56:25.755Z,21.48
2022-08-12T12:02:00.842Z,21.69
2022-08-12T12:04:29.926Z,21.58
2022-08-12T12:06:56.894Z,21.58
2022-08-12T12:09:52.999Z,21.80
2022-08-12T12:12:22.338Z,22.83
2022-08-12T12:14:54.650Z,23.26
2022-08-12T12:17:24.662Z,23.03
2022-08-12T12:19:53.222Z,23.03
2022-08-12T12:22:23.596Z,22.37
2022-08-12T12:24:54.170Z,21.14
2022-08-12T12:28:03.888Z,21.91
2022-08-12T12:30:17.533Z,22.05
2022-08-12T12:32:54.758Z,23.14
2022-08-12T12:36:06.626Z,23.02
2022-08-12T12:38:13.067Z,23.18
2022-08-12T12:40:50.257Z,22.90
2022-08-12T12:43:29.033Z,22.06
2022-08-12T12:46:05.565Z,21.84
2022-08-12T12:48:32.233Z,21.61
2022-08-12T12:51:49.185Z,21.26
2022-08-12T12:54:06.783Z,20.76
2022-08-12T12:56:38.306Z,21.75
2022-08-12T12:59:06.064Z,22.28
2022-08-12T13:01:38.389Z,22.44
2022-08-12T13:04:12.262Z,21.91
2022-08-12T13:06:41.958Z,21.39
2022-08-12T13:09:12.908Z,20.38
2022-08-12T13:11:42.141Z,19.67
2022-08-12T13:14:28.708Z,20.41
2022-08-12T13:17:02.950Z,20.50
2022-08-12T13:19:38.628Z,20.36
2022-08-12T13:22:23.665Z,19.63
2022-08-12T13:24:55.535Z,17.42
2022-08-12T13:27:48.575Z,17.46
2022-08-12T13:30:20.643Z,17.88
2022-08-12T13:32:56.672Z,18.60
2022-08-12T13:36:06.018Z,18.95
2022-08-12T13:38:43.885Z,18.63
2022-08-12T13:41:34.315Z,18.34
2022-08-12T13:44:10.483Z,18.53
2022-08-12T13:46:38.787Z,19.62
2022-08-12T13:49:07.636Z,18.77
2022-08-12T13:51:41.116Z,19.19
2022-08-12T13:54:14.035Z,19.19
2022-08-12T13:56:40.915Z,18.78
2022-08-12T13:59:08.818Z,19.44
2022-08-12T14:01:40.508Z,18.86
2022-08-12T14:04:11.994Z,19.13
2022-08-12T14:06:40.033Z,19.13
2022-08-12T14:09:15.771Z,18.73
2022-08-12T14:11:48.470Z,18.97
2022-08-12T14:14:26.173Z,19.64
2022-08-12T14:16:53.796Z,18.69
2022-08-12T14:19:23.094Z,18.51
2022-08-12T14:22:00.914Z,19.23
2022-08-12T14:24:35.532Z,19.81
2022-08-12T14:27:03.330Z,18.38
2022-08-12T14:29:56.300Z,18.88
2022-08-12T14:32:18.245Z,18.80
2022-08-12T14:34:51.383Z,18.85
2022-08-12T14:37:57.413Z,18.43
2022-08-12T14:40:06.372Z,18.44
2022-08-12T14:42:33.086Z,18.20
2022-08-12T14:45:01.500Z,18.40
2022-08-12T14:47:35.088Z,19.10
2022-08-12T14:50:37.798Z,19.14
2022-08-12T14:58:27.210Z,17.30
2022-08-12T15:01:12.528Z,17.70
2022-08-12T15:03:52.361Z,16.83
2022-08-12T15:06:39.440Z,17.72
2022-08-12T15:09:12.089Z,17.48
2022-08-12T15:11:55.828Z,17.91
2022-08-12T15:14:30.430Z,18.02
2022-08-12T15:17:00.236Z,17.76
2022-08-12T15:20:07.561Z,17.66
2022-08-12T15:22:38.383Z,17.93
2022-08-12T15:25:05.474Z,17.40
2022-08-12T15:28:04.131Z,18.10
2022-08-12T15:30:25.617Z,17.68
2022-08-12T15:32:56.929Z,18.24
2022-08-12T15:35:24.400Z,18.54
2022-08-12T15:38:10.247Z,18.82
2022-08-12T15:40:46.930Z,19.01
2022-08-12T15:43:52.015Z,18.96
2022-08-12T15:46:04.715Z,18.67
2022-08-12T15:48:32.792Z,19.33
2022-08-12T15:51:01.003Z,19.48
2022-08-12T15:53:46.463Z,19.70
2022-08-12T15:56:22.181Z,19.75
2022-08-12T15:58:59.064Z,19.43
2022-08-12T16:01:28.817Z,19.32
2022-08-12T16:04:03.109Z,20.07
2022-08-12T16:09:56.812Z,19.89
2022-08-12T16:12:12.209Z,19.79
2022-08-12T16:14:41.386Z,20.05
2022-08-12T16:17:15.648Z,19.85
2022-08-12T16:20:02.992Z,20.01
2022-08-12T16:22:29.191Z,20.37
2022-08-12T16:24:57.164Z,20.40
2022-08-12T16:27:25.593Z,20.83
2022-08-12T16:29:57.704Z,21.11
2022-08-12T16:32:31.188Z,20.61
2022-08-12T16:35:00.059Z,20.74
2022-08-12T16:37:32.775Z,21.02
2022-08-12T16:40:14.523Z,20.38
2022-08-12T16:42:53.953Z,20.83
2022-08-12T16:46:04.598Z,21.21
2022-08-12T16:48:35.386Z,21.00
2022-08-12T16:51:09.891Z,21.45
2022-08-12T16:53:44.755Z,20.67
2022-08-12T16:56:15.219Z,20.74
2022-08-12T16:58:43.517Z,20.74
2022-08-12T17:01:14.504Z,20.90
2022-08-12T17:03:47.255Z,21.04
2022-08-12T17:06:27.753Z,20.84
2022-08-12T17:09:02.712Z,20.25
2022-08-12T17:11:32.435Z,20.28
2022-08-12T17:13:59.571Z,21.34
2022-08-12T17:16:30.363Z,20.65
2022-08-12T17:18:59.648Z,21.66
2022-08-12T17:21:41.373Z,21.61
2022-08-12T17:24:21.514Z,21.76
2022-08-12T17:26:51.485Z,21.74
2022-08-12T17:29:31.964Z,21.53
2022-08-12T17:32:10.185Z,21.78
2022-08-12T17:34:56.117Z,22.41
2022-08-12T17:37:22.803Z,22.83
2022-08-12T17:40:12.133Z,22.62
2022-08-12T17:42:40.610Z,22.70
2022-08-12T17:45:16.939Z,22.08
2022-08-12T17:48:01.278Z,22.50
2022-08-12T17:50:32.018Z,22.68
2022-08-12T17:53:02.988Z,22.80
2022-08-12T17:55:44.820Z,22.28
2022-08-12T17:58:21.551Z,22.86
2022-08-12T18:00:50.566Z,23.10
2022-08-12T18:03:57.658Z,23.30
2022-08-12T18:06:13.631Z,22.83
2022-08-12T18:08:54.567Z,22.79
2022-08-12T18:12:05.069Z,23.08
2022-08-12T18:14:29.076Z,23.50
2022-08-12T18:17:00.752Z,23.03
2022-08-12T18:20:04.049Z,23.58
2022-08-12T18:22:22.071Z,23.84
2022-08-12T18:25:02.707Z,23.62
2022-08-12T18:27:47.002Z,23.75
2022-08-12T18:30:20.993Z,24.03
2022-08-12T18:33:03.483Z,24.13
2022-08-12T18:35:47.134Z,24.34
2022-08-12T18:38:21.890Z,24.54
2022-08-12T18:41:09.526Z,24.79
2022-08-12T18:43:57.745Z,24.77
2022-08-12T18:46:35.864Z,24.92
2022-08-12T18:49:17.646Z,25.14
2022-08-12T18:52:04.437Z,25.62
2022-08-12T18:54:35.135Z,25.82
2022-08-12T18:57:07.062Z,26.35
2022-08-12T19:00:00.784Z,26.20
2022-08-12T19:02:38.897Z,26.13
2022-08-12T19:05:12.102Z,26.10
2022-08-12T19:07:49.325Z,26.30
2022-08-12T19:10:25.129Z,26.67
2022-08-12T19:13:25.244Z,27.10
2022-08-12T19:16:01.591Z,27.82
2022-08-12T19:18:30.896Z,27.71
2022-08-12T19:21:11.976Z,28.08
2022-08-12T19:23:44.180Z,27.80
2022-08-12T19:26:12.427Z,28.12
2022-08-12T19:28:40.614Z,28.38
2022-08-12T19:31:59.592Z,28.28
2022-08-12T19:36:14.469Z,28.06
2022-08-12T19:37:22.642Z,28.49
2022-08-12T19:40:09.070Z,28.56
2022-08-12T19:42:53.351Z,29.04
2022-08-12T19:45:20.763Z,29.14
2022-08-12T19:47:49.083Z,29.22
2022-08-12T19:50:19.998Z,29.33
2022-08-12T19:52:51.178Z,29.36
2022-08-12T19:55:21.769Z,29.29
2022-08-12T19:58:01.893Z,29.06
2022-08-12T20:00:31.097Z,29.72
2022-08-12T20:03:00.711Z,29.20
2022-08-12T20:06:04.777Z,29.78
2022-08-12T20:08:20.869Z,29.18
2022-08-12T20:12:11.510Z,29.02
2022-08-12T20:14:00.318Z,29.30
2022-08-12T20:16:51.693Z,29.88
2022-08-12T20:19:15.976Z,29.57
2022-08-12T20:21:43.558Z,30.04
2022-08-12T20:24:14.223Z,29.72
2022-08-12T20:26:43.076Z,29.86
2022-08-12T20:29:13.430Z,29.84
2022-08-12T20:31:40.803Z,30.24
2022-08-12T20:34:09.134Z,30.53
2022-08-12T20:36:45.021Z,29.97
2022-08-12T20:39:37.169Z,30.54
2022-08-12T20:42:08.439Z,30.78
2022-08-12T20:44:40.806Z,30.98
2022-08-12T20:47:20.085Z,30.61
2022-08-12T20:49:54.932Z,30.93
2022-08-12T20:52:25.391Z,31.16
2022-08-12T20:54:56.621Z,31.33
2022-08-12T20:57:23.971Z,31.02
2022-08-12T20:59:52.730Z,30.67
2022-08-12T21:02:24.428Z,31.26
2022-08-12T21:05:16.203Z,31.22
2022-08-12T21:07:51.413Z,31.80
2022-08-12T21:10:20.905Z,31.94
2022-08-12T21:12:48.059Z,31.53
2022-08-12T21:15:23.677Z,31.43
2022-08-12T21:18:11.449Z,31.92
2022-08-12T21:20:52.532Z,31.18
2022-08-12T21:23:21.587Z,31.52
2022-08-12T21:25:51.145Z,31.66
2022-08-12T21:28:20.932Z,31.52
2022-08-12T21:31:11.526Z,31.70
2022-08-12T21:34:06.237Z,31.76
2022-08-12T21:36:34.751Z,32.47
2022-08-12T21:39:20.389Z,32.09
2022-08-12T21:41:53.033Z,32.19
2022-08-12T21:45:47.004Z,32.56
2022-08-12T21:47:20.136Z,32.25
2022-08-12T21:49:53.606Z,32.24
2022-08-12T21:52:34.162Z,32.22
2022-08-12T21:55:03.391Z,32.27
2022-08-12T21:57:30.425Z,32.19
2022-08-12T22:00:05.982Z,32.49
2022-08-12T22:03:02.798Z,32.54
2022-08-12T22:05:47.948Z,32.93
2022-08-12T22:08:17.111Z,32.69
2022-08-12T22:10:52.322Z,32.61
2022-08-12T22:14:07.138Z,32.61
2022-08-12T22:16:07.173Z,32.48
2022-08-12T22:18:33.914Z,32.49
2022-08-12T22:21:00.527Z,32.87
2022-08-12T22:23:51.257Z,33.13
2022-08-12T22:26:28.931Z,33.15
2022-08-12T22:29:17.262Z,33.12
2022-08-12T22:31:45.907Z,33.24
2022-08-12T22:34:18.031Z,33.12
2022-08-12T22:36:45.137Z,33.07
2022-08-12T22:39:15.733Z,33.25
2022-08-12T22:42:02.045Z,33.41
2022-08-12T22:45:15.945Z,33.59
2022-08-12T22:47:54.258Z,33.52
2022-08-12T22:50:27.352Z,33.77
2022-08-12T22:53:15.028Z,33.66
2022-08-12T22:56:00.594Z,34.20
2022-08-12T22:58:32.019Z,34.08
2022-08-12T23:00:59.169Z,34.38
2022-08-12T23:03:47.827Z,34.47
2022-08-12T23:06:21.298Z,35.01
2022-08-12T23:08:48.224Z,34.51
2022-08-12T23:11:17.257Z,34.33
2022-08-12T23:13:54.775Z,34.63
2022-08-12T23:16:31.474Z,34.77
2022-08-12T23:19:17.946Z,34.76
2022-08-12T23:22:06.077Z,34.49
2022-08-12T23:24:41.179Z,34.86
2022-08-12T23:27:50.462Z,34.93
2022-08-12T23:30:32.036Z,35.10
2022-08-12T23:33:20.298Z,35.37
2022-08-12T23:36:02.570Z,34.80
2022-08-12T23:38:32.412Z,35.52
2022-08-12T23:41:05.651Z,35.45
2022-08-12T23:43:38.767Z,35.06
2022-08-12T23:46:09.289Z,35.29
2022-08-12T23:48:37.709Z,35.73
2022-08-12T23:51:22.095Z,35.89
2022-08-12T23:53:50.666Z,35.88
2022-08-12T23:56:17.702Z,35.38
2022-08-12T23:58:52.774Z,35.88
